Time;durP1;ratioP1;P1;durP2;ratioP2;P2;SDS_P1;SDS_P2;PMS_P1;PMS_P2;Temp;Humidity;BMP_temperature;BMP_pressure;BME280_temperature;BME280_humidity;BME280_pressure;Samples;Min_cycle;Max_cycle;Signal;HPM_P1;HPM_P2
2023/07/20 04:55:15;;;;;;;2.60;2.40;;;17.90;99.90;;;;;;5677694;25;20467;-77
2023/07/20 05:09:23;;;;;;;3.83;3.33;;;18.40;99.90;;;;;;5935811;24;20220;-79
2023/07/20 05:11:50;;;;;;;2.40;2.30;;;18.40;99.90;;;;;;5994547;24;20494;-76
2023/07/20 05:14:17;;;;;;;3.50;3.20;;;18.40;99.90;;;;;;5993951;24;21075;-77
2023/07/20 05:16:47;;;;;;;3.13;2.77;;;18.50;99.90;;;;;;6041300;23;20431;-77
2023/07/20 05:19:19;;;;;;;3.00;2.77;;;18.70;99.90;;;;;;6051475;23;20447;-77
2023/07/20 05:21:52;;;;;;;4.30;3.23;;;18.60;99.90;;;;;;6051795;23;20420;-79
2023/07/20 05:24:21;;;;;;;4.80;2.40;;;18.70;99.90;;;;;;6130547;23;20483;-77
2023/07/20 05:26:55;;;;;;;5.30;2.63;;;18.90;99.90;;;;;;6201237;23;20436;-76
2023/07/20 05:29:33;;;;;;;4.63;2.90;;;19.00;99.90;;;;;;6200406;23;20415;-77
2023/07/20 05:32:23;;;;;;;4.37;2.90;;;19.00;99.90;;;;;;6197743;23;20413;-77
2023/07/20 05:35:16;;;;;;;4.07;2.60;;;19.10;99.90;;;;;;6193025;23;20503;-76
2023/07/20 05:38:27;;;;;;;3.00;2.63;;;19.20;99.90;;;;;;6194944;23;20835;-78
2023/07/20 05:41:41;;;;;;;3.03;2.80;;;19.20;99.90;;;;;;6191993;23;20413;-77
2023/07/20 05:44:20;;;;;;;3.53;2.50;;;19.40;99.90;;;;;;6189523;23;20427;-77
2023/07/20 05:47:10;;;;;;;2.57;2.37;;;19.50;99.90;;;;;;6190378;23;20455;-78
2023/07/20 05:49:42;;;;;;;3.57;2.73;;;19.60;99.90;;;;;;6193144;23;20417;-77
2023/07/20 05:52:10;;;;;;;5.80;2.77;;;19.60;99.90;;;;;;6191536;23;20468;-78
2023/07/20 06:16:57;;;;;;;4.60;3.43;;;20.30;99.90;;;;;;5818274;24;20411;-79
2023/07/20 06:19:42;;;;;;;;;;;;;;;;;;;;;
2023/07/20 06:22:32;;;;;;;3.37;3.07;;;20.40;99.90;;;;;;6161936;23;20405;-80
2023/07/20 07:39:59;;;;;;;2.80;2.60;;;21.50;99.90;;;;;;5597330;24;5800500;-79
2023/07/20 07:42:44;;;;;;;2.97;2.67;;;21.90;99.90;;;;;;5954298;23;20170;-79
2023/07/20 07:45:13;;;;;;;3.07;2.77;;;22.00;99.90;;;;;;6105182;23;20429;-78
2023/07/20 07:47:50;;;;;;;2.70;2.50;;;21.80;99.90;;;;;;6103976;23;20457;-78
2023/07/20 07:50:23;;;;;;;3.83;2.63;;;21.90;99.90;;;;;;6134987;23;20413;-78
2023/07/20 07:52:57;;;;;;;3.10;2.77;;;21.50;99.90;;;;;;6166327;23;20411;-80
2023/07/20 07:55:41;;;;;;;6.47;2.77;;;21.50;99.90;;;;;;6168974;23;20427;-79
2023/07/20 07:58:15;;;;;;;3.47;2.77;;;21.70;99.90;;;;;;6165641;23;20413;-79
2023/07/20 08:00:47;;;;;;;3.47;2.80;;;22.00;99.90;;;;;;6169556;23;20502;-77
2023/07/20 08:03:20;;;;;;;4.80;2.83;;;22.10;99.90;;;;;;6170400;23;20430;-78
2023/07/20 08:05:49;;;;;;;3.10;2.50;;;22.10;99.90;;;;;;6170651;23;20435;-77
2023/07/20 08:08:24;;;;;;;2.83;2.63;;;21.90;99.90;;;;;;6168979;23;20396;-78
2023/07/20 08:10:57;;;;;;;2.33;2.13;;;21.90;99.90;;;;;;6163385;23;20423;-78
2023/07/20 08:13:33;;;;;;;4.57;2.90;;;21.90;99.90;;;;;;6160181;23;20412;-77
2023/07/20 09:02:56;;;;;;;2.47;2.07;;;22.70;99.90;;;;;;5868999;24;20430;-79
2023/07/20 09:05:35;;;;;;;2.60;2.40;;;22.80;99.90;;;;;;5941774;23;20471;-77
2023/07/20 09:11:24;;;;;;;3.07;2.83;;;23.20;99.90;;;;;;6110745;23;20783;-78
2023/07/20 09:14:27;;;;;;;3.07;2.50;;;23.40;99.90;;;;;;6158581;23;20428;-77
2023/07/20 09:17:23;;;;;;;2.80;2.30;;;23.50;99.90;;;;;;6151033;23;20448;-77
2023/07/20 09:25:54;;;;;;;2.43;2.23;;;22.70;99.90;;;;;;6165163;23;20412;-79
2023/07/20 09:31:49;;;;;;;;;;;;;;;;;;;;;
2023/07/20 09:34:57;;;;;;;2.20;2.10;;;23.50;99.90;;;;;;6164906;23;20435;-78
2023/07/20 09:37:51;;;;;;;4.23;2.33;;;23.20;99.90;;;;;;6152044;23;20531;-78
2023/07/20 09:41:28;;;;;;;11.67;2.93;;;23.20;99.90;;;;;;6165450;23;20412;-78
2023/07/20 09:44:30;;;;;;;2.53;2.30;;;23.00;99.90;;;;;;6156401;23;20446;-77
2023/07/20 09:47:29;;;;;;;3.23;2.07;;;23.80;99.90;;;;;;6158748;23;20413;-78
2023/07/20 09:50:10;;;;;;;4.60;2.03;;;24.70;99.90;;;;;;6157637;23;20503;-80
2023/07/20 09:52:51;;;;;;;3.67;2.20;;;24.40;99.90;;;;;;6158224;23;20408;-77
2023/07/20 09:55:50;;;;;;;2.03;1.90;;;24.60;99.90;;;;;;6159438;23;20800;-77
2023/07/20 09:58:37;;;;;;;1.90;1.80;;;24.40;99.90;;;;;;6161484;23;20412;-77
2023/07/20 10:02:06;;;;;;;;;;;;;;;;;;;;;
2023/07/20 10:15:51;;;;;;;7.23;2.10;;;24.50;99.90;;;;;;5816534;24;20421;-79
2023/07/20 10:18:55;;;;;;;1.93;1.83;;;24.60;99.90;;;;;;5990718;24;20414;-78
2023/07/20 10:21:33;;;;;;;1.87;1.77;;;24.60;99.50;;;;;;6130222;23;20409;-78
2023/07/20 10:24:08;;;;;;;3.17;2.10;;;25.20;97.50;;;;;;6129305;23;20429;-78
2023/07/20 10:26:45;;;;;;;1.97;1.87;;;25.40;96.60;;;;;;6128613;23;20412;-80
2023/07/20 10:29:19;;;;;;;1.60;1.50;;;25.70;95.80;;;;;;6129074;23;20484;-81
2023/07/20 10:32:08;;;;;;;2.20;2.10;;;25.40;95.40;;;;;;6129660;23;20433;-81
2023/07/20 10:35:02;;;;;;;3.70;1.40;;;25.10;95.20;;;;;;6132520;23;20429;-79
2023/07/20 10:37:55;;;;;;;2.23;1.57;;;25.10;95.00;;;;;;6012438;23;20468;-80
2023/07/20 10:40:35;;;;;;;1.40;1.30;;;25.20;94.10;;;;;;6129463;23;20413;-79
2023/07/20 10:43:13;;;;;;;2.30;1.70;;;24.60;94.60;;;;;;6134283;23;20423;-79
2023/07/20 10:45:47;;;;;;;1.33;1.23;;;24.90;95.20;;;;;;6136672;23;20487;-80
2023/07/20 10:48:22;;;;;;;2.00;1.73;;;25.40;93.80;;;;;;6140459;23;20394;-79
2023/07/20 10:51:16;;;;;;;1.80;1.70;;;25.60;93.70;;;;;;6141473;23;20448;-79
2023/07/20 10:54:01;;;;;;;2.03;1.70;;;25.40;93.30;;;;;;6138327;23;20436;-81
2023/07/20 10:56:48;;;;;;;1.67;1.57;;;25.80;93.10;;;;;;6134898;23;20476;-82
2023/07/20 10:59:40;;;;;;;2.30;2.20;;;26.10;91.70;;;;;;6134528;23;20464;-79
2023/07/20 11:02:22;;;;;;;1.87;1.67;;;26.00;92.10;;;;;;6134092;23;20413;-81
2023/07/20 11:05:03;;;;;;;2.40;1.50;;;26.30;91.60;;;;;;6133893;23;20441;-81
2023/07/20 11:08:00;;;;;;;1.60;1.50;;;26.60;90.90;;;;;;6132985;23;20382;-82
2023/07/20 11:10:44;;;;;;;2.43;1.80;;;26.70;90.50;;;;;;6132254;23;20430;-80
2023/07/20 11:16:22;;;;;;;1.83;1.67;;;26.90;86.00;;;;;;6131592;23;20472;-81
2023/07/20 11:19:00;;;;;;;1.47;1.37;;;26.30;84.60;;;;;;6133036;23;20452;-81
2023/07/20 11:21:55;;;;;;;1.63;1.53;;;26.20;87.70;;;;;;6134286;23;20416;-82
2023/07/20 11:24:37;;;;;;;3.00;1.40;;;26.60;85.70;;;;;;6133421;23;20492;-79
2023/07/20 11:27:22;;;;;;;1.30;1.30;;;27.00;84.40;;;;;;6136499;23;20420;-80
2023/07/20 11:30:02;;;;;;;1.73;1.63;;;26.70;84.00;;;;;;6134546;23;20412;-80
2023/07/20 11:32:59;;;;;;;1.80;1.70;;;25.70;85.30;;;;;;6134375;23;20445;-79
2023/07/20 11:38:58;;;;;;;1.30;1.13;;;26.40;85.50;;;;;;6134380;23;20401;-80
2023/07/20 11:41:55;;;;;;;1.50;1.40;;;27.10;85.00;;;;;;6116166;23;20418;-84
2023/07/20 11:44:48;;;;;;;1.83;1.50;;;27.70;83.00;;;;;;6130097;23;20436;-79
2023/07/20 11:47:41;;;;;;;2.10;1.90;;;27.80;80.60;;;;;;6133634;23;20409;-80
2023/07/20 11:53:41;;;;;;;1.80;1.70;;;27.90;79.70;;;;;;6131175;23;20444;-82
2023/07/20 11:56:30;;;;;;;4.07;1.70;;;27.60;77.00;;;;;;6129000;23;20627;-80
2023/07/20 12:03:11;;;;;;;3.47;2.17;;;28.20;75.80;;;;;;6133296;23;20466;-79
2023/07/20 12:05:50;;;;;;;2.40;1.30;;;27.90;75.20;;;;;;6137399;23;20444;-82
2023/07/20 12:08:28;;;;;;;1.73;1.63;;;27.60;73.70;;;;;;6137860;23;20409;-83
2023/07/20 12:11:01;;;;;;;1.43;1.23;;;27.70;74.50;;;;;;6140063;23;20409;-82
2023/07/20 12:13:44;;;;;;;1.67;1.40;;;28.10;73.90;;;;;;6138498;23;20697;-80
2023/07/20 12:16:15;;;;;;;1.60;1.50;;;27.60;71.80;;;;;;6139572;23;20437;-81
2023/07/20 12:18:50;;;;;;;1.90;1.77;;;27.70;73.00;;;;;;6139428;23;20512;-82
2023/07/20 12:21:32;;;;;;;1.63;1.53;;;28.00;70.40;;;;;;6137722;23;20404;-81
2023/07/20 12:24:18;;;;;;;2.23;1.40;;;28.10;71.20;;;;;;6136882;23;20488;-78
2023/07/20 12:26:58;;;;;;;1.60;1.40;;;28.20;69.20;;;;;;6138078;23;20456;-79
2023/07/20 12:29:40;;;;;;;5.73;1.60;;;28.40;69.10;;;;;;6139417;23;20415;-80
2023/07/20 12:32:17;;;;;;;1.60;1.50;;;28.60;69.10;;;;;;6138312;23;20852;-82
2023/07/20 12:35:02;;;;;;;1.60;1.50;;;28.40;69.20;;;;;;6134244;23;20425;-79
2023/07/20 12:37:35;;;;;;;3.40;1.90;;;28.20;69.00;;;;;;6134473;23;20441;-79
2023/07/20 12:50:19;;;;;;;1.60;1.50;;;28.60;68.60;;;;;;5998943;23;20427;-80
2023/07/20 12:52:55;;;;;;;4.03;1.77;;;28.90;68.90;;;;;;6130691;23;20480;-80
2023/07/20 12:55:32;;;;;;;3.47;1.30;;;28.90;68.80;;;;;;6133756;23;20432;-81
2023/07/20 12:58:23;;;;;;;1.50;1.40;;;28.90;66.70;;;;;;6132446;23;20464;-81
2023/07/20 13:01:06;;;;;;;2.50;1.57;;;28.40;66.70;;;;;;6128942;23;20392;-81
2023/07/20 13:04:04;;;;;;;;;;;;;;;;;;;;;
2023/07/20 13:06:55;;;;;;;1.50;1.40;;;27.50;67.50;;;;;;6102213;23;20378;-80
2023/07/20 13:09:36;;;;;;;2.00;1.30;;;28.00;67.90;;;;;;6104542;23;20414;-81
2023/07/20 13:12:19;;;;;;;3.00;1.40;;;28.50;66.00;;;;;;6103805;23;20739;-82
2023/07/20 13:14:53;;;;;;;2.70;1.70;;;29.30;64.60;;;;;;6076804;23;20916;-82
2023/07/20 13:17:33;;;;;;;2.93;1.43;;;29.80;64.10;;;;;;6103038;23;20529;-78
2023/07/20 13:20:04;;;;;;;2.30;1.20;;;29.30;63.00;;;;;;6108679;23;20413;-80
2023/07/20 13:22:33;;;;;;;2.03;1.70;;;28.30;64.60;;;;;;6109482;23;20450;-80
2023/07/20 13:25:50;;;;;;;;;;;;;;;;;;;;;
2023/07/20 13:31:55;;;;;;;1.30;1.30;;;28.10;64.30;;;;;;5954474;24;20422;-79
2023/07/20 13:34:34;;;;;;;6.37;1.70;;;28.10;63.20;;;;;;5989296;23;20425;-78
2023/07/20 13:37:11;;;;;;;1.37;1.27;;;28.50;64.30;;;;;;6105557;23;20449;-80
2023/07/20 13:39:45;;;;;;;1.70;1.60;;;28.60;61.90;;;;;;6109014;23;20481;-82
2023/07/20 13:42:30;;;;;;;1.77;1.67;;;28.60;63.50;;;;;;6111044;23;20421;-81
2023/07/20 13:45:09;;;;;;;1.77;1.67;;;28.90;62.60;;;;;;6107974;23;20438;-78
2023/07/20 13:47:39;;;;;;;4.77;1.63;;;29.10;61.30;;;;;;6080732;23;20500;-81
2023/07/20 13:50:17;;;;;;;1.70;1.40;;;28.70;61.20;;;;;;6106825;23;20418;-81
2023/07/20 13:53:08;;;;;;;1.93;1.73;;;28.90;61.40;;;;;;6104712;23;20480;-80
2023/07/20 13:56:07;;;;;;;2.43;1.53;;;28.80;61.80;;;;;;6106319;23;20987;-80
2023/07/20 13:58:45;;;;;;;1.43;1.43;;;29.60;60.60;;;;;;6109024;23;20533;-82
2023/07/20 14:01:32;;;;;;;3.33;1.63;;;28.60;61.10;;;;;;6107614;23;20398;-80
2023/07/20 14:04:16;;;;;;;3.17;1.47;;;28.40;61.40;;;;;;6109093;23;20448;-80
2023/07/20 14:06:56;;;;;;;1.63;1.50;;;29.60;60.90;;;;;;6101240;23;20413;-80
2023/07/20 14:09:36;;;;;;;2.27;1.60;;;29.30;59.80;;;;;;6098716;23;20428;-80
2023/07/20 14:12:14;;;;;;;2.57;1.60;;;29.40;61.30;;;;;;6098776;23;20417;-79
2023/07/20 14:14:52;;;;;;;1.70;1.50;;;28.70;59.50;;;;;;6099285;23;20434;-80
2023/07/20 14:17:36;;;;;;;1.43;1.33;;;28.90;61.50;;;;;;6099940;23;20525;-81
2023/07/20 14:20:24;;;;;;;1.43;1.40;;;29.20;59.40;;;;;;6071142;23;20992;-80
2023/07/20 14:22:59;;;;;;;1.30;1.20;;;30.00;59.20;;;;;;6073104;23;20419;-79
2023/07/20 14:25:28;;;;;;;2.40;1.40;;;30.10;58.30;;;;;;6076602;23;20936;-78
2023/07/20 14:27:58;;;;;;;1.60;1.50;;;29.80;58.60;;;;;;6078711;23;20411;-79
2023/07/20 14:30:34;;;;;;;3.27;1.77;;;29.90;58.50;;;;;;6077352;23;20415;-81
2023/07/20 14:33:05;;;;;;;2.97;1.50;;;29.70;58.20;;;;;;6075761;23;20406;-80
2023/07/20 14:36:01;;;;;;;1.40;1.27;;;29.50;56.90;;;;;;6078918;23;20438;-79
2023/07/20 14:41:26;;;;;;;2.10;1.60;;;28.30;58.30;;;;;;6080510;23;20399;-81
2023/07/20 14:44:05;;;;;;;2.37;1.30;;;28.80;58.60;;;;;;6081398;23;20454;-81
2023/07/20 14:47:08;;;;;;;1.43;1.10;;;29.40;57.50;;;;;;6085598;23;20498;-80
2023/07/20 14:49:58;;;;;;;1.40;1.30;;;29.40;56.40;;;;;;6073118;23;20495;-82
2023/07/20 14:52:57;;;;;;;1.43;1.20;;;28.00;57.60;;;;;;6071094;23;20937;-79
2023/07/20 14:55:34;;;;;;;3.03;1.80;;;28.30;58.50;;;;;;6070923;23;20984;-79
2023/07/20 14:58:10;;;;;;;1.57;1.47;;;28.60;57.20;;;;;;6073574;23;20446;-83
2023/07/20 15:01:07;;;;;;;2.07;1.50;;;28.60;58.30;;;;;;6076040;23;20418;-80
2023/07/20 15:03:46;;;;;;;1.40;1.30;;;29.30;56.90;;;;;;6079927;23;20736;-80
2023/07/20 15:06:30;;;;;;;1.63;1.53;;;30.00;55.00;;;;;;6115365;23;20425;-82
2023/07/20 15:09:14;;;;;;;1.63;1.23;;;30.00;55.20;;;;;;6120804;23;20481;-79
2023/07/20 15:11:56;;;;;;;2.57;1.50;;;30.10;55.00;;;;;;6119221;23;20469;-79
2023/07/20 15:14:35;;;;;;;2.90;1.53;;;30.00;55.10;;;;;;6117346;23;20469;-81
2023/07/20 15:17:07;;;;;;;1.23;1.13;;;29.60;55.70;;;;;;6112147;23;20442;-80
2023/07/20 15:19:46;;;;;;;1.30;1.30;;;30.20;55.40;;;;;;6109617;23;20497;-81
2023/07/20 15:22:21;;;;;;;1.70;1.60;;;30.40;54.90;;;;;;6112421;23;20565;-81
2023/07/20 15:24:57;;;;;;;1.40;1.23;;;30.20;54.70;;;;;;6115625;23;20436;-81
2023/07/20 15:27:28;;;;;;;2.23;1.70;;;29.60;55.90;;;;;;6112945;23;20479;-81
2023/07/20 15:30:01;;;;;;;2.00;1.40;;;29.70;56.30;;;;;;6116345;23;20414;-79
2023/07/20 15:32:33;;;;;;;1.40;1.30;;;30.30;55.70;;;;;;6117747;23;20413;-80
2023/07/20 15:35:11;;;;;;;1.17;1.17;;;29.60;55.30;;;;;;6112359;23;20440;-81
2023/07/20 15:37:48;;;;;;;1.40;1.30;;;28.70;55.50;;;;;;6102661;23;20473;-80
2023/07/20 15:40:18;;;;;;;1.47;1.40;;;29.20;55.70;;;;;;6099723;23;20413;-79
2023/07/20 15:43:20;;;;;;;1.67;1.27;;;29.30;54.40;;;;;;6101215;23;20741;-83
2023/07/20 15:46:03;;;;;;;1.80;1.70;;;29.00;55.10;;;;;;6100103;23;20464;-81
2023/07/20 15:48:36;;;;;;;1.20;1.13;;;28.20;55.90;;;;;;6099943;23;20410;-81
2023/07/20 15:51:10;;;;;;;1.70;1.60;;;28.70;56.40;;;;;;6100768;23;20418;-81
2023/07/20 15:53:44;;;;;;;1.50;1.40;;;29.00;55.80;;;;;;6099904;23;20414;-80
2023/07/20 15:56:19;;;;;;;1.93;1.30;;;28.00;55.40;;;;;;6102051;23;20868;-80
2023/07/20 15:58:52;;;;;;;1.53;1.43;;;28.40;55.80;;;;;;6100831;23;20646;-79
2023/07/20 16:01:26;;;;;;;2.17;1.80;;;28.30;56.40;;;;;;6105319;23;20421;-77
2023/07/20 16:04:15;;;;;;;1.40;1.30;;;27.90;57.30;;;;;;6103047;23;20514;-81
2023/07/20 16:06:48;;;;;;;1.80;1.70;;;27.20;58.00;;;;;;6077798;23;20415;-79
2023/07/20 16:09:20;;;;;;;1.80;1.70;;;27.80;58.50;;;;;;6076167;23;20414;-80
2023/07/20 16:11:51;;;;;;;2.20;1.47;;;28.40;58.10;;;;;;6076734;23;20410;-80
2023/07/20 16:14:24;;;;;;;1.20;1.17;;;28.00;58.10;;;;;;6075173;23;20488;-81
2023/07/20 16:16:52;;;;;;;2.10;1.73;;;27.60;57.50;;;;;;6080124;23;20470;-80
2023/07/20 16:19:25;;;;;;;4.33;1.83;;;28.40;58.00;;;;;;6079136;23;20443;-81
2023/07/20 16:21:58;;;;;;;1.30;1.30;;;28.30;57.40;;;;;;6079410;23;20415;-81
2023/07/20 16:24:32;;;;;;;1.30;1.30;;;28.00;57.70;;;;;;6079439;23;20449;-79
2023/07/20 16:27:08;;;;;;;1.50;1.40;;;27.70;56.60;;;;;;6079683;23;20418;-82
2023/07/20 16:29:39;;;;;;;1.90;1.70;;;27.00;57.40;;;;;;6076901;23;20434;-80
2023/07/20 16:32:12;;;;;;;1.57;1.47;;;26.90;58.50;;;;;;6080545;23;20418;-81
2023/07/20 16:34:40;;;;;;;3.40;1.50;;;26.80;59.10;;;;;;6080845;23;20509;-80
2023/07/20 16:37:14;;;;;;;1.90;1.77;;;27.20;59.10;;;;;;6080863;23;20483;-79
2023/07/20 16:39:46;;;;;;;3.50;1.70;;;27.70;59.10;;;;;;6079695;23;20952;-80
2023/07/20 16:42:19;;;;;;;2.13;1.93;;;27.80;58.10;;;;;;6081004;23;20411;-80
2023/07/20 16:44:53;;;;;;;1.37;1.30;;;27.30;57.80;;;;;;6080841;23;20419;-79
2023/07/20 16:47:28;;;;;;;1.70;1.33;;;27.40;57.80;;;;;;6080502;23;20717;-81
2023/07/20 16:49:57;;;;;;;1.40;1.30;;;27.60;57.40;;;;;;6080756;23;20407;-80
2023/07/20 16:52:29;;;;;;;2.80;1.50;;;27.50;57.30;;;;;;6080855;23;20422;-81
2023/07/20 16:54:59;;;;;;;1.70;1.60;;;27.30;58.10;;;;;;6081458;23;20438;-80
2023/07/20 16:57:29;;;;;;;1.67;1.57;;;27.00;58.00;;;;;;6082380;23;20443;-80
2023/07/20 17:00:10;;;;;;;2.07;1.70;;;26.90;58.70;;;;;;6079953;23;20447;-82
2023/07/20 17:02:41;;;;;;;1.50;1.40;;;27.20;59.00;;;;;;6077234;23;20426;-79
2023/07/20 17:05:14;;;;;;;1.80;1.70;;;27.00;58.40;;;;;;6088504;23;20441;-81
2023/07/20 17:08:00;;;;;;;1.80;1.70;;;26.50;59.20;;;;;;6105425;23;20481;-81
2023/07/20 17:10:34;;;;;;;1.30;1.30;;;26.80;59.20;;;;;;6103484;23;20485;-81
2023/07/20 17:13:14;;;;;;;3.10;1.17;;;26.70;58.80;;;;;;6102186;23;20413;-81
2023/07/20 17:15:55;;;;;;;8.47;1.67;;;26.40;59.20;;;;;;6101254;23;20757;-80
2023/07/20 17:18:39;;;;;;;1.67;1.57;;;26.30;59.20;;;;;;6100597;23;20448;-81
2023/07/20 17:21:15;;;;;;;2.03;1.60;;;26.40;59.60;;;;;;6101359;23;20418;-80
2023/07/20 18:16:49;;;;;;;;;;;;;;;;;;;;;
2023/07/20 19:35:44;;;;;;;2.00;1.50;;;23.80;66.20;;;;;;6035572;23;20422;-78
2023/07/20 19:41:16;;;;;;;3.00;1.97;;;23.70;67.20;;;;;;6092591;23;20421;-79
2023/07/20 19:43:47;;;;;;;2.73;2.03;;;23.70;67.80;;;;;;6107440;23;20520;-79
2023/07/20 19:46:18;;;;;;;2.87;2.27;;;23.70;68.20;;;;;;6112346;23;20888;-79
2023/07/20 19:48:55;;;;;;;2.30;2.20;;;23.50;68.20;;;;;;6112471;23;20911;-79
2023/07/20 19:51:27;;;;;;;2.67;2.43;;;23.50;68.60;;;;;;6111804;23;20429;-81
2023/07/20 19:54:00;;;;;;;3.40;3.13;;;23.50;69.20;;;;;;6111976;23;20493;-82
2023/07/20 19:56:34;;;;;;;3.13;2.30;;;23.50;69.80;;;;;;6110761;23;20442;-83
2023/07/20 19:59:06;;;;;;;3.00;2.40;;;23.50;70.10;;;;;;6113760;23;20458;-82
2023/07/20 20:01:33;;;;;;;3.00;2.70;;;23.40;71.10;;;;;;6114461;23;20434;-81
2023/07/20 20:04:01;;;;;;;4.10;2.33;;;23.40;72.00;;;;;;6111150;23;20434;-79
2023/07/20 20:06:29;;;;;;;3.30;2.30;;;23.30;72.10;;;;;;6112926;23;20386;-79
2023/07/20 20:09:01;;;;;;;2.80;2.60;;;23.30;72.60;;;;;;6110607;23;20424;-78
2023/07/20 20:11:34;;;;;;;2.20;2.10;;;23.20;73.10;;;;;;6114028;23;20402;-82
2023/07/20 20:14:10;;;;;;;7.60;2.40;;;23.20;73.80;;;;;;6114114;23;20398;-79
2023/07/20 20:16:40;;;;;;;3.63;2.67;;;23.10;74.20;;;;;;6116029;23;20477;-82
2023/07/20 20:22:15;;;;;;;4.10;2.47;;;23.00;74.10;;;;;;6100210;23;20719;-88
2023/07/20 20:25:02;;;;;;;2.93;2.60;;;23.00;74.20;;;;;;6125046;23;20425;-86
2023/07/20 20:27:30;;;;;;;3.93;3.07;;;22.90;74.30;;;;;;6117849;23;20381;-79
2023/07/20 20:30:05;;;;;;;3.83;3.53;;;22.90;74.50;;;;;;6104807;23;20493;-82
2023/07/20 20:32:43;;;;;;;4.53;3.40;;;22.90;74.80;;;;;;6105014;23;20409;-80
2023/07/20 20:35:17;;;;;;;3.27;2.90;;;22.90;75.20;;;;;;6107919;23;20465;-80
2023/07/20 20:37:47;;;;;;;4.20;3.20;;;22.90;74.90;;;;;;6106645;23;20481;-80
2023/07/20 20:40:15;;;;;;;6.50;3.40;;;22.80;76.00;;;;;;6106315;23;20824;-80
2023/07/20 20:42:51;;;;;;;6.07;3.60;;;22.70;76.80;;;;;;6106760;23;20418;-79
2023/07/20 20:45:19;;;;;;;5.13;3.13;;;22.90;77.30;;;;;;6106695;23;20433;-81
2023/07/20 20:47:49;;;;;;;3.60;3.30;;;22.60;77.60;;;;;;6108975;23;20394;-79
2023/07/20 20:50:30;;;;;;;3.13;2.87;;;22.60;78.50;;;;;;6109033;23;20391;-80
2023/07/20 20:53:03;;;;;;;3.63;3.33;;;22.50;78.90;;;;;;6109010;23;20417;-78
2023/07/20 20:55:32;;;;;;;4.43;3.90;;;22.50;78.90;;;;;;6105502;23;20440;-80
2023/07/20 20:58:04;;;;;;;6.73;3.30;;;22.40;78.50;;;;;;6104317;23;20449;-80
2023/07/20 21:00:37;;;;;;;4.33;3.17;;;22.40;78.60;;;;;;6105656;23;20441;-79
2023/07/20 21:03:13;;;;;;;3.57;3.27;;;22.40;78.10;;;;;;6109069;23;20410;-78
2023/07/20 21:05:41;;;;;;;2.90;2.70;;;22.10;77.90;;;;;;6116647;23;20434;-79
2023/07/20 21:08:13;;;;;;;3.73;3.07;;;22.20;78.10;;;;;;6116683;23;20421;-83
2023/07/20 21:10:58;;;;;;;2.73;2.53;;;21.90;78.60;;;;;;6122842;23;20478;-85
2023/07/20 21:13:29;;;;;;;3.07;2.87;;;22.10;78.30;;;;;;6098242;23;20487;-79
2023/07/20 21:15:57;;;;;;;3.17;2.80;;;22.10;78.80;;;;;;6116738;23;20410;-80
2023/07/20 21:18:27;;;;;;;3.70;3.07;;;22.20;79.10;;;;;;6116504;23;20395;-80
2023/07/20 21:20:57;;;;;;;3.47;3.00;;;22.00;79.30;;;;;;6117058;23;20417;-82
2023/07/20 21:23:36;;;;;;;5.33;3.07;;;22.00;79.50;;;;;;6113916;23;20414;-78
2023/07/20 21:26:06;;;;;;;3.03;2.83;;;21.90;79.90;;;;;;6110595;23;20506;-81
2023/07/20 21:28:41;;;;;;;2.93;2.73;;;21.90;80.10;;;;;;6109464;23;20409;-82
2023/07/20 21:31:18;;;;;;;4.97;4.50;;;21.90;80.70;;;;;;6108232;23;20485;-79
2023/07/20 21:33:57;;;;;;;5.57;4.87;;;21.60;80.70;;;;;;6104052;23;20807;-81
2023/07/20 21:36:28;;;;;;;4.07;3.63;;;21.80;81.30;;;;;;6101771;23;20468;-78
2023/07/20 21:39:05;;;;;;;3.93;3.37;;;21.80;81.50;;;;;;6102728;23;20501;-81
2023/07/20 21:41:38;;;;;;;3.10;2.80;;;21.70;81.80;;;;;;6103929;23;20440;-81
2023/07/20 21:44:12;;;;;;;4.63;3.50;;;21.70;82.10;;;;;;6104271;23;20441;-80
2023/07/20 21:46:40;;;;;;;3.47;3.17;;;21.60;82.80;;;;;;6109420;23;20422;-81
2023/07/20 21:49:17;;;;;;;3.57;2.93;;;21.50;83.00;;;;;;6107446;23;20394;-80
2023/07/20 21:51:50;;;;;;;3.40;2.80;;;21.50;83.80;;;;;;6106195;23;20410;-79
2023/07/20 21:54:25;;;;;;;3.10;2.70;;;21.50;84.10;;;;;;6104969;23;20522;-82
2023/07/20 21:57:02;;;;;;;3.33;3.03;;;21.40;84.60;;;;;;6105968;23;20429;-80
2023/07/20 21:59:33;;;;;;;3.27;2.97;;;21.40;85.00;;;;;;6107370;23;20536;-82
2023/07/20 22:02:06;;;;;;;3.40;2.90;;;21.30;85.30;;;;;;6106422;23;20476;-81
2023/07/20 22:04:37;;;;;;;4.47;3.20;;;21.30;85.70;;;;;;6105769;23;20467;-80
2023/07/20 22:07:18;;;;;;;3.77;3.47;;;21.20;86.30;;;;;;6109725;23;20417;-81
2023/07/20 22:09:49;;;;;;;5.30;2.90;;;21.20;86.70;;;;;;6107304;23;20429;-81
2023/07/20 22:12:33;;;;;;;5.23;3.20;;;21.10;87.50;;;;;;6107218;23;20410;-79
2023/07/20 22:15:08;;;;;;;3.70;3.40;;;21.00;87.80;;;;;;6109002;23;20453;-80
2023/07/20 22:17:53;;;;;;;4.40;3.17;;;20.90;88.30;;;;;;6109039;23;20417;-79
2023/07/20 22:20:24;;;;;;;3.10;2.90;;;20.80;89.30;;;;;;6104628;23;20449;-78
2023/07/20 22:23:02;;;;;;;3.30;3.00;;;20.80;89.70;;;;;;6103450;23;20441;-80
2023/07/20 22:25:30;;;;;;;4.03;3.33;;;20.80;90.10;;;;;;6104429;23;20417;-80
2023/07/20 22:27:59;;;;;;;3.30;2.80;;;20.70;90.60;;;;;;6106369;23;20433;-82
2023/07/20 22:30:26;;;;;;;3.83;3.53;;;20.70;90.80;;;;;;6111320;23;20412;-81
2023/07/20 22:32:55;;;;;;;3.57;2.90;;;20.70;91.10;;;;;;6111702;23;20410;-80
2023/07/20 22:35:24;;;;;;;3.03;2.80;;;20.70;91.40;;;;;;6108001;23;20422;-82
2023/07/20 22:37:56;;;;;;;4.60;2.73;;;20.70;91.70;;;;;;6109215;23;20391;-80
2023/07/20 22:40:26;;;;;;;3.13;2.80;;;20.80;92.10;;;;;;6113908;23;20434;-81
2023/07/20 22:43:05;;;;;;;3.80;2.97;;;20.60;92.30;;;;;;6112577;23;20429;-80
2023/07/20 22:45:46;;;;;;;4.80;3.13;;;20.50;92.50;;;;;;6107277;23;20827;-81
2023/07/20 22:48:17;;;;;;;3.50;2.97;;;20.40;92.80;;;;;;6109346;23;20413;-80
2023/07/20 22:50:48;;;;;;;5.60;3.20;;;20.30;93.10;;;;;;6105063;23;20410;-79
2023/07/20 22:53:22;;;;;;;3.53;2.47;;;20.20;93.30;;;;;;6104029;23;20418;-82
2023/07/20 22:55:52;;;;;;;5.40;2.50;;;20.30;93.50;;;;;;6103990;23;20509;-80
2023/07/20 22:58:21;;;;;;;3.90;2.87;;;20.30;93.60;;;;;;6106257;23;20431;-82
2023/07/20 23:00:50;;;;;;;3.00;2.70;;;20.20;94.00;;;;;;6106960;23;20442;-81
2023/07/20 23:03:19;;;;;;;3.23;2.67;;;20.10;94.50;;;;;;6107453;23;20449;-80
2023/07/20 23:05:49;;;;;;;3.00;2.80;;;20.00;95.20;;;;;;6110531;23;20442;-80
2023/07/20 23:08:20;;;;;;;3.07;2.73;;;19.90;95.60;;;;;;6115807;23;20406;-81
2023/07/20 23:10:51;;;;;;;3.80;2.83;;;20.00;95.70;;;;;;6116429;23;20470;-80
2023/07/20 23:16:11;;;;;;;3.20;2.70;;;19.90;95.00;;;;;;6107748;23;20466;-82
2023/07/20 23:18:46;;;;;;;2.77;2.53;;;19.90;95.40;;;;;;6109210;23;20437;-82
2023/07/20 23:21:17;;;;;;;4.83;3.03;;;19.80;95.90;;;;;;6099997;23;20464;-81
2023/07/20 23:23:49;;;;;;;2.80;2.47;;;19.90;96.70;;;;;;6104251;23;20429;-80
2023/07/20 23:26:25;;;;;;;2.37;2.17;;;19.80;96.70;;;;;;6110408;23;20410;-81
2023/07/20 23:28:57;;;;;;;2.60;2.40;;;19.80;96.90;;;;;;6109096;23;20394;-81
2023/07/20 23:31:46;;;;;;;2.60;2.40;;;19.80;97.00;;;;;;6108113;23;20402;-81
2023/07/20 23:34:20;;;;;;;2.77;2.57;;;19.60;97.80;;;;;;6107606;23;20978;-82
2023/07/20 23:36:48;;;;;;;3.27;2.97;;;19.60;98.00;;;;;;6107387;23;20477;-81
2023/07/20 23:39:26;;;;;;;3.57;2.90;;;19.60;98.00;;;;;;6113105;23;20425;-80
2023/07/20 23:42:22;;;;;;;2.93;2.73;;;19.60;98.30;;;;;;6117515;23;20418;-80
2023/07/20 23:45:01;;;;;;;3.43;2.63;;;19.60;98.50;;;;;;6109677;23;20534;-81
2023/07/20 23:47:49;;;;;;;2.90;2.47;;;19.60;99.00;;;;;;6102925;23;20418;-81
2023/07/20 23:53:25;;;;;;;2.50;2.30;;;19.50;99.50;;;;;;6117769;23;20410;-80
2023/07/20 23:56:02;;;;;;;2.70;2.50;;;19.50;99.90;;;;;;6124080;23;20570;-81
2023/07/20 23:58:42;;;;;;;5.13;2.20;;;19.50;99.90;;;;;;6123665;23;20406;-80
